sensor_id;sensor_type;location;lat;lon;timestamp;pressure;altitude;pressure_sealevel;temperature;humidity
64352;BME280;50680;52.626;-8.668;2023-01-24T00:01:02;103700.66;;;7.49;100.00
64352;BME280;50680;52.626;-8.668;2023-01-24T00:03:29;103698.91;;;7.51;100.00
64352;BME280;50680;52.626;-8.668;2023-01-24T00:05:56;103701.50;;;7.51;100.00
64352;BME280;50680;52.626;-8.668;2023-01-24T00:08:23;103702.38;;;7.53;100.00
64352;BME280;50680;52.626;-8.668;2023-01-24T00:10:58;103698.03;;;7.56;100.00
64352;BME280;50680;52.626;-8.668;2023-01-24T00:13:25;103698.91;;;7.51;100.00
64352;BME280;50680;52.626;-8.668;2023-01-24T00:18:30;103691.06;;;7.50;100.00
64352;BME280;50680;52.626;-8.668;2023-01-24T00:21:05;103691.94;;;7.50;100.00
64352;BME280;50680;52.626;-8.668;2023-01-24T00:23:36;103691.91;;;7.49;100.00
64352;BME280;50680;52.626;-8.668;2023-01-24T00:26:03;103697.16;;;7.49;100.00
64352;BME280;50680;52.626;-8.668;2023-01-24T00:28:30;103694.53;;;7.52;100.00
64352;BME280;50680;52.626;-8.668;2023-01-24T00:30:57;103699.78;;;7.52;100.00
64352;BME280;50680;52.626;-8.668;2023-01-24T00:33:24;103700.63;;;7.52;100.00
64352;BME280;50680;52.626;-8.668;2023-01-24T00:35:51;103703.25;;;7.52;100.00
64352;BME280;50680;52.626;-8.668;2023-01-24T00:38:19;103711.97;;;7.53;100.00
64352;BME280;50680;52.626;-8.668;2023-01-24T00:40:46;103703.25;;;7.49;100.00
64352;BME280;50680;52.626;-8.668;2023-01-24T00:43:13;103718.03;;;7.50;100.00
64352;BME280;50680;52.626;-8.668;2023-01-24T00:45:40;103714.56;;;7.53;100.00
64352;BME280;50680;52.626;-8.668;2023-01-24T00:48:07;103701.50;;;7.51;100.00
64352;BME280;50680;52.626;-8.668;2023-01-24T00:50:35;103714.56;;;7.58;100.00
64352;BME280;50680;52.626;-8.668;2023-01-24T00:53:02;103718.06;;;7.60;100.00
64352;BME280;50680;52.626;-8.668;2023-01-24T00:55:29;103711.97;;;7.59;100.00
64352;BME280;50680;52.626;-8.668;2023-01-24T00:57:56;103705.88;;;7.59;100.00
64352;BME280;50680;52.626;-8.668;2023-01-24T01:00:23;103700.66;;;7.59;100.00
64352;BME280;50680;52.626;-8.668;2023-01-24T01:02:50;103704.13;;;7.58;100.00
64352;BME280;50680;52.626;-8.668;2023-01-24T01:05:17;103707.63;;;7.57;100.00
64352;BME280;50680;52.626;-8.668;2023-01-24T01:07:45;103709.38;;;7.55;100.00
64352;BME280;50680;52.626;-8.668;2023-01-24T01:10:11;103707.59;;;7.53;100.00
64352;BME280;50680;52.626;-8.668;2023-01-24T01:12:38;103701.50;;;7.50;100.00
64352;BME280;50680;52.626;-8.668;2023-01-24T01:15:05;103704.13;;;7.51;100.00
64352;BME280;50680;52.626;-8.668;2023-01-24T01:17:32;103699.75;;;7.49;100.00
64352;BME280;50680;52.626;-8.668;2023-01-24T01:19:59;103704.13;;;7.53;100.00
64352;BME280;50680;52.626;-8.668;2023-01-24T01:22:26;103711.09;;;7.51;100.00
64352;BME280;50680;52.626;-8.668;2023-01-24T01:24:53;103704.13;;;7.51;100.00
64352;BME280;50680;52.626;-8.668;2023-01-24T01:27:19;103709.38;;;7.55;100.00
64352;BME280;50680;52.626;-8.668;2023-01-24T01:29:46;103710.22;;;7.55;100.00
64352;BME280;50680;52.626;-8.668;2023-01-24T01:32:13;103706.72;;;7.58;100.00
64352;BME280;50680;52.626;-8.668;2023-01-24T01:34:40;103710.22;;;7.55;100.00
64352;BME280;50680;52.626;-8.668;2023-01-24T01:37:06;103718.94;;;7.57;100.00
64352;BME280;50680;52.626;-8.668;2023-01-24T01:39:33;103716.31;;;7.56;100.00
64352;BME280;50680;52.626;-8.668;2023-01-24T01:42:00;103709.34;;;7.51;100.00
64352;BME280;50680;52.626;-8.668;2023-01-24T01:44:30;103718.94;;;7.62;100.00
64352;BME280;50680;52.626;-8.668;2023-01-24T01:47:35;103727.66;;;7.65;100.00
64352;BME280;50680;52.626;-8.668;2023-01-24T01:50:07;103723.28;;;7.63;100.00
64352;BME280;50680;52.626;-8.668;2023-01-24T01:52:42;103718.94;;;7.68;100.00
64352;BME280;50680;52.626;-8.668;2023-01-24T01:55:14;103711.09;;;7.68;100.00
64352;BME280;50680;52.626;-8.668;2023-01-24T01:57:42;103714.59;;;7.71;100.00
64352;BME280;50680;52.626;-8.668;2023-01-24T02:00:12;103707.63;;;7.69;100.00
64352;BME280;50680;52.626;-8.668;2023-01-24T02:02:43;103713.72;;;7.69;100.00
64352;BME280;50680;52.626;-8.668;2023-01-24T02:05:14;103721.56;;;7.71;100.00
64352;BME280;50680;52.626;-8.668;2023-01-24T02:07:58;103722.41;;;7.71;100.00
64352;BME280;50680;52.626;-8.668;2023-01-24T02:10:26;103718.06;;;7.69;100.00
64352;BME280;50680;52.626;-8.668;2023-01-24T02:13:17;103724.16;;;7.66;100.00
64352;BME280;50680;52.626;-8.668;2023-01-24T02:15:45;103725.91;;;7.69;100.00
64352;BME280;50680;52.626;-8.668;2023-01-24T02:18:35;103730.28;;;7.67;100.00
64352;BME280;50680;52.626;-8.668;2023-01-24T02:21:04;103729.41;;;7.65;100.00
64352;BME280;50680;52.626;-8.668;2023-01-24T02:26:18;103736.38;;;7.72;100.00
64352;BME280;50680;52.626;-8.668;2023-01-24T02:28:52;103737.22;;;7.68;100.00
64352;BME280;50680;52.626;-8.668;2023-01-24T02:31:21;103728.50;;;7.66;100.00
64352;BME280;50680;52.626;-8.668;2023-01-24T02:33:48;103730.28;;;7.70;100.00
64352;BME280;50680;52.626;-8.668;2023-01-24T02:41:28;103738.09;;;7.75;100.00
64352;BME280;50680;52.626;-8.668;2023-01-24T02:43:58;103733.75;;;7.75;100.00
64352;BME280;50680;52.626;-8.668;2023-01-24T02:46:30;103745.94;;;7.76;100.00
64352;BME280;50680;52.626;-8.668;2023-01-24T02:49:01;103742.47;;;7.77;100.00
64352;BME280;50680;52.626;-8.668;2023-01-24T02:51:30;103734.63;;;7.80;100.00
64352;BME280;50680;52.626;-8.668;2023-01-24T02:54:15;103735.50;;;7.79;100.00
64352;BME280;50680;52.626;-8.668;2023-01-24T02:56:42;103743.34;;;7.82;100.00
64352;BME280;50680;52.626;-8.668;2023-01-24T02:59:31;103732.91;;;7.82;100.00
64352;BME280;50680;52.626;-8.668;2023-01-24T03:01:58;103731.16;;;7.81;100.00
64352;BME280;50680;52.626;-8.668;2023-01-24T03:04:25;103735.50;;;7.82;100.00
64352;BME280;50680;52.626;-8.668;2023-01-24T03:06:52;103737.25;;;7.85;100.00
64352;BME280;50680;52.626;-8.668;2023-01-24T03:09:19;103729.41;;;7.86;100.00
64352;BME280;50680;52.626;-8.668;2023-01-24T03:11:47;103730.28;;;7.88;100.00
64352;BME280;50680;52.626;-8.668;2023-01-24T03:14:14;103740.72;;;7.88;100.00
64352;BME280;50680;52.626;-8.668;2023-01-24T03:17:00;103743.34;;;7.95;100.00
64352;BME280;50680;52.626;-8.668;2023-01-24T03:19:46;103742.47;;;7.99;100.00
64352;BME280;50680;52.626;-8.668;2023-01-24T03:22:31;103745.94;;;7.99;100.00
64352;BME280;50680;52.626;-8.668;2023-01-24T03:25:17;103743.34;;;8.01;100.00
64352;BME280;50680;52.626;-8.668;2023-01-24T03:28:04;103743.34;;;8.04;100.00
64352;BME280;50680;52.626;-8.668;2023-01-24T03:30:50;103742.50;;;8.05;100.00
64352;BME280;50680;52.626;-8.668;2023-01-24T03:33:35;103742.50;;;8.05;100.00
64352;BME280;50680;52.626;-8.668;2023-01-24T03:36:21;103740.75;;;8.04;100.00
64352;BME280;50680;52.626;-8.668;2023-01-24T03:38:58;103741.59;;;8.06;100.00
64352;BME280;50680;52.626;-8.668;2023-01-24T03:41:43;103745.97;;;8.07;100.00
64352;BME280;50680;52.626;-8.668;2023-01-24T03:44:10;103743.34;;;8.04;100.00
64352;BME280;50680;52.626;-8.668;2023-01-24T03:46:36;103747.72;;;8.02;100.00
64352;BME280;50680;52.626;-8.668;2023-01-24T03:49:07;103740.75;;;8.04;100.00
64352;BME280;50680;52.626;-8.668;2023-01-24T03:51:34;103748.59;;;8.07;100.00
64352;BME280;50680;52.626;-8.668;2023-01-24T03:54:20;103745.97;;;8.10;100.00
64352;BME280;50680;52.626;-8.668;2023-01-24T03:56:47;103748.59;;;8.12;100.00
64352;BME280;50680;52.626;-8.668;2023-01-24T03:59:16;103752.94;;;8.14;100.00
64352;BME280;50680;52.626;-8.668;2023-01-24T04:01:42;103747.72;;;8.16;100.00
64352;BME280;50680;52.626;-8.668;2023-01-24T04:04:09;103755.56;;;8.17;100.00
64352;BME280;50680;52.626;-8.668;2023-01-24T04:06:37;103757.28;;;8.20;100.00
64352;BME280;50680;52.626;-8.668;2023-01-24T04:09:04;103762.50;;;8.23;100.00
64352;BME280;50680;52.626;-8.668;2023-01-24T04:11:31;103759.91;;;8.24;100.00
64352;BME280;50680;52.626;-8.668;2023-01-24T04:13:58;103763.38;;;8.26;100.00
64352;BME280;50680;52.626;-8.668;2023-01-24T04:16:24;103760.78;;;8.28;100.00
64352;BME280;50680;52.626;-8.668;2023-01-24T04:18:51;103758.16;;;8.29;100.00
64352;BME280;50680;52.626;-8.668;2023-01-24T04:21:18;103764.25;;;8.32;100.00
64352;BME280;50680;52.626;-8.668;2023-01-24T04:23:45;103766.00;;;8.34;100.00
64352;BME280;50680;52.626;-8.668;2023-01-24T04:26:11;103759.03;;;8.36;100.00
64352;BME280;50680;52.626;-8.668;2023-01-24T04:28:38;103766.88;;;8.33;100.00
64352;BME280;50680;52.626;-8.668;2023-01-24T04:31:05;103771.25;;;8.34;100.00
64352;BME280;50680;52.626;-8.668;2023-01-24T04:33:32;103766.88;;;8.30;100.00
64352;BME280;50680;52.626;-8.668;2023-01-24T04:35:59;103770.38;;;8.31;100.00
64352;BME280;50680;52.626;-8.668;2023-01-24T04:38:26;103771.22;;;8.33;100.00
64352;BME280;50680;52.626;-8.668;2023-01-24T04:41:00;103778.19;;;8.35;100.00
64352;BME280;50680;52.626;-8.668;2023-01-24T04:43:27;103776.47;;;8.33;100.00
64352;BME280;50680;52.626;-8.668;2023-01-24T04:45:57;103779.94;;;8.36;100.00
64352;BME280;50680;52.626;-8.668;2023-01-24T04:48:25;103780.81;;;8.37;100.00
64352;BME280;50680;52.626;-8.668;2023-01-24T04:50:57;103766.88;;;8.35;100.00
64352;BME280;50680;52.626;-8.668;2023-01-24T04:53:24;103776.44;;;8.39;100.00
64352;BME280;50680;52.626;-8.668;2023-01-24T04:55:51;103781.66;;;8.37;100.00
64352;BME280;50680;52.626;-8.668;2023-01-24T04:58:17;103775.56;;;8.32;100.00
64352;BME280;50680;52.626;-8.668;2023-01-24T05:00:44;103787.78;;;8.38;100.00
64352;BME280;50680;52.626;-8.668;2023-01-24T05:03:11;103776.44;;;8.39;100.00
64352;BME280;50680;52.626;-8.668;2023-01-24T05:05:38;103780.81;;;8.40;100.00
64352;BME280;50680;52.626;-8.668;2023-01-24T05:08:04;103784.28;;;8.42;100.00
64352;BME280;50680;52.626;-8.668;2023-01-24T05:10:31;103792.13;;;8.42;100.00
64352;BME280;50680;52.626;-8.668;2023-01-24T05:12:58;103787.75;;;8.41;100.00
64352;BME280;50680;52.626;-8.668;2023-01-24T05:15:25;103786.03;;;8.41;100.00
64352;BME280;50680;52.626;-8.668;2023-01-24T05:17:52;103779.06;;;8.40;100.00
64352;BME280;50680;52.626;-8.668;2023-01-24T05:20:19;103779.06;;;8.42;100.00
64352;BME280;50680;52.626;-8.668;2023-01-24T05:22:47;103781.69;;;8.42;100.00
64352;BME280;50680;52.626;-8.668;2023-01-24T05:25:16;103779.06;;;8.42;100.00
64352;BME280;50680;52.626;-8.668;2023-01-24T05:27:43;103773.00;;;8.43;100.00
64352;BME280;50680;52.626;-8.668;2023-01-24T05:30:10;103773.00;;;8.43;100.00
64352;BME280;50680;52.626;-8.668;2023-01-24T05:32:38;103770.38;;;8.43;100.00
64352;BME280;50680;52.626;-8.668;2023-01-24T05:35:05;103780.84;;;8.43;100.00
64352;BME280;50680;52.626;-8.668;2023-01-24T05:37:32;103779.94;;;8.42;100.00
64352;BME280;50680;52.626;-8.668;2023-01-24T05:40:02;103778.19;;;8.40;100.00
64352;BME280;50680;52.626;-8.668;2023-01-24T05:42:31;103777.31;;;8.41;100.00
64352;BME280;50680;52.626;-8.668;2023-01-24T05:44:58;103776.44;;;8.42;100.00
64352;BME280;50680;52.626;-8.668;2023-01-24T05:47:25;103778.19;;;8.40;100.00
64352;BME280;50680;52.626;-8.668;2023-01-24T05:49:52;103784.28;;;8.39;100.00
64352;BME280;50680;52.626;-8.668;2023-01-24T05:52:18;103781.66;;;8.39;100.00
64352;BME280;50680;52.626;-8.668;2023-01-24T05:54:48;103790.38;;;8.41;100.00
64352;BME280;50680;52.626;-8.668;2023-01-24T05:57:16;103788.66;;;8.40;100.00
64352;BME280;50680;52.626;-8.668;2023-01-24T05:59:43;103789.53;;;8.42;100.00
64352;BME280;50680;52.626;-8.668;2023-01-24T06:02:10;103789.56;;;8.43;100.00
64352;BME280;50680;52.626;-8.668;2023-01-24T06:04:37;103784.31;;;8.43;100.00
64352;BME280;50680;52.626;-8.668;2023-01-24T06:07:04;103786.94;;;8.45;100.00
64352;BME280;50680;52.626;-8.668;2023-01-24T06:09:31;103789.56;;;8.48;100.00
64352;BME280;50680;52.626;-8.668;2023-01-24T06:11:57;103793.03;;;8.50;100.00
64352;BME280;50680;52.626;-8.668;2023-01-24T06:14:24;103793.94;;;8.43;100.00
64352;BME280;50680;52.626;-8.668;2023-01-24T06:16:51;103788.69;;;8.43;100.00
64352;BME280;50680;52.626;-8.668;2023-01-24T06:19:18;103795.66;;;8.42;100.00
64352;BME280;50680;52.626;-8.668;2023-01-24T06:22:08;103787.75;;;8.41;100.00
64352;BME280;50680;52.626;-8.668;2023-01-24T06:24:36;103797.38;;;8.42;100.00
64352;BME280;50680;52.626;-8.668;2023-01-24T06:27:03;103790.41;;;8.39;100.00
64352;BME280;50680;52.626;-8.668;2023-01-24T06:29:30;103789.50;;;8.39;100.00
64352;BME280;50680;52.626;-8.668;2023-01-24T06:37:21;103786.91;;;8.37;100.00
64352;BME280;50680;52.626;-8.668;2023-01-24T06:39:52;103790.41;;;8.35;100.00
64352;BME280;50680;52.626;-8.668;2023-01-24T06:42:21;103789.53;;;8.28;100.00
64352;BME280;50680;52.626;-8.668;2023-01-24T06:44:50;103787.81;;;8.25;100.00
64352;BME280;50680;52.626;-8.668;2023-01-24T06:47:17;103794.75;;;8.29;100.00
64352;BME280;50680;52.626;-8.668;2023-01-24T06:49:43;103797.38;;;8.36;100.00
64352;BME280;50680;52.626;-8.668;2023-01-24T06:52:11;103796.50;;;8.26;100.00
64352;BME280;50680;52.626;-8.668;2023-01-24T06:54:38;103804.34;;;8.24;100.00
64352;BME280;50680;52.626;-8.668;2023-01-24T06:57:04;103794.75;;;8.25;100.00
64352;BME280;50680;52.626;-8.668;2023-01-24T06:59:31;103797.38;;;8.20;100.00
64352;BME280;50680;52.626;-8.668;2023-01-24T07:01:58;103793.03;;;8.22;100.00
64352;BME280;50680;52.626;-8.668;2023-01-24T07:04:25;103790.41;;;8.22;100.00
64352;BME280;50680;52.626;-8.668;2023-01-24T07:06:52;103782.56;;;8.25;100.00
64352;BME280;50680;52.626;-8.668;2023-01-24T07:09:20;103789.50;;;8.23;100.00
64352;BME280;50680;52.626;-8.668;2023-01-24T07:11:47;103779.94;;;8.19;100.00
64352;BME280;50680;52.626;-8.668;2023-01-24T07:14:19;103780.81;;;8.15;100.00
64352;BME280;50680;52.626;-8.668;2023-01-24T07:16:46;103781.69;;;8.16;100.00
64352;BME280;50680;52.626;-8.668;2023-01-24T07:19:17;103767.75;;;8.14;100.00
64352;BME280;50680;52.626;-8.668;2023-01-24T07:21:44;103766.84;;;8.13;100.00
64352;BME280;50680;52.626;-8.668;2023-01-24T07:24:14;103773.84;;;8.14;100.00
64352;BME280;50680;52.626;-8.668;2023-01-24T07:26:42;103768.63;;;8.14;100.00
64352;BME280;50680;52.626;-8.668;2023-01-24T07:29:09;103755.53;;;8.13;100.00
64352;BME280;50680;52.626;-8.668;2023-01-24T07:31:37;103755.56;;;8.16;100.00
64352;BME280;50680;52.626;-8.668;2023-01-24T07:34:04;103754.69;;;8.15;100.00
64352;BME280;50680;52.626;-8.668;2023-01-24T07:36:31;103764.25;;;8.18;100.00
64352;BME280;50680;52.626;-8.668;2023-01-24T07:38:58;103766.00;;;8.17;100.00
64352;BME280;50680;52.626;-8.668;2023-01-24T07:41:25;103770.38;;;8.17;100.00
64352;BME280;50680;52.626;-8.668;2023-01-24T07:43:52;103773.84;;;8.16;100.00
64352;BME280;50680;52.626;-8.668;2023-01-24T07:46:19;103785.16;;;8.15;100.00
64352;BME280;50680;52.626;-8.668;2023-01-24T07:48:46;103786.03;;;8.09;100.00
64352;BME280;50680;52.626;-8.668;2023-01-24T07:51:13;103791.25;;;8.09;100.00
64352;BME280;50680;52.626;-8.668;2023-01-24T07:53:40;103791.25;;;8.04;100.00
64352;BME280;50680;52.626;-8.668;2023-01-24T07:56:07;103788.63;;;7.95;100.00
64352;BME280;50680;52.626;-8.668;2023-01-24T07:58:46;103785.16;;;7.90;100.00
64352;BME280;50680;52.626;-8.668;2023-01-24T08:01:22;103772.06;;;7.85;100.00
64352;BME280;50680;52.626;-8.668;2023-01-24T08:03:52;103768.59;;;7.83;100.00
64352;BME280;50680;52.626;-8.668;2023-01-24T08:06:19;103767.72;;;7.80;100.00
64352;BME280;50680;52.626;-8.668;2023-01-24T08:08:46;103772.06;;;7.79;100.00
64352;BME280;50680;52.626;-8.668;2023-01-24T08:11:13;103772.06;;;7.76;100.00
64352;BME280;50680;52.626;-8.668;2023-01-24T08:13:43;103778.16;;;7.75;100.00
64352;BME280;50680;52.626;-8.668;2023-01-24T08:16:10;103779.91;;;7.81;100.00
64352;BME280;50680;52.626;-8.668;2023-01-24T08:18:37;103784.28;;;7.86;100.00
64352;BME280;50680;52.626;-8.668;2023-01-24T08:21:05;103777.31;;;7.91;100.00
64352;BME280;50680;52.626;-8.668;2023-01-24T08:23:32;103793.88;;;7.89;100.00
64352;BME280;50680;52.626;-8.668;2023-01-24T08:26:00;103795.59;;;7.90;100.00
64352;BME280;50680;52.626;-8.668;2023-01-24T08:28:27;103790.38;;;7.88;100.00
64352;BME280;50680;52.626;-8.668;2023-01-24T08:30:59;103800.84;;;8.01;100.00
64352;BME280;50680;52.626;-8.668;2023-01-24T08:33:26;103799.97;;;7.93;100.00
64352;BME280;50680;52.626;-8.668;2023-01-24T08:35:52;103799.97;;;7.91;100.00
64352;BME280;50680;52.626;-8.668;2023-01-24T08:38:19;103801.69;;;7.90;100.00
64352;BME280;50680;52.626;-8.668;2023-01-24T08:40:46;103805.19;;;7.89;100.00
64352;BME280;50680;52.626;-8.668;2023-01-24T08:43:16;103801.69;;;7.90;100.00
64352;BME280;50680;52.626;-8.668;2023-01-24T08:45:44;103806.91;;;7.90;100.00
64352;BME280;50680;52.626;-8.668;2023-01-24T08:48:10;103808.66;;;7.90;100.00
64352;BME280;50680;52.626;-8.668;2023-01-24T08:50:37;103813.91;;;7.91;100.00
64352;BME280;50680;52.626;-8.668;2023-01-24T08:53:04;103818.25;;;8.00;100.00
64352;BME280;50680;52.626;-8.668;2023-01-24T08:55:31;103820.00;;;7.95;100.00
64352;BME280;50680;52.626;-8.668;2023-01-24T08:58:00;103819.13;;;7.96;100.00
64352;BME280;50680;52.626;-8.668;2023-01-24T09:00:27;103818.25;;;7.96;100.00
64352;BME280;50680;52.626;-8.668;2023-01-24T09:02:54;103819.13;;;7.95;100.00
64352;BME280;50680;52.626;-8.668;2023-01-24T09:05:21;103828.72;;;7.99;100.00
64352;BME280;50680;52.626;-8.668;2023-01-24T09:07:48;103827.84;;;8.00;100.00
64352;BME280;50680;52.626;-8.668;2023-01-24T09:10:15;103829.59;;;8.04;100.00
64352;BME280;50680;52.626;-8.668;2023-01-24T09:12:42;103832.22;;;8.10;100.00
64352;BME280;50680;52.626;-8.668;2023-01-24T09:15:09;103832.22;;;8.10;100.00
64352;BME280;50680;52.626;-8.668;2023-01-24T09:17:37;103828.75;;;8.22;100.00
64352;BME280;50680;52.626;-8.668;2023-01-24T09:20:04;103843.53;;;8.21;100.00
64352;BME280;50680;52.626;-8.668;2023-01-24T09:22:32;103844.41;;;8.25;100.00
64352;BME280;50680;52.626;-8.668;2023-01-24T09:24:58;103847.91;;;8.30;100.00
64352;BME280;50680;52.626;-8.668;2023-01-24T09:27:25;103861.88;;;8.38;100.00
64352;BME280;50680;52.626;-8.668;2023-01-24T09:29:52;103864.50;;;8.46;100.00
64352;BME280;50680;52.626;-8.668;2023-01-24T09:32:19;103860.16;;;8.51;100.00
64352;BME280;50680;52.626;-8.668;2023-01-24T09:34:47;103855.78;;;8.59;100.00
64352;BME280;50680;52.626;-8.668;2023-01-24T09:37:21;103855.81;;;8.65;100.00
64352;BME280;50680;52.626;-8.668;2023-01-24T09:39:48;103861.88;;;8.77;100.00
64352;BME280;50680;52.626;-8.668;2023-01-24T09:50:16;103868.81;;;9.09;100.00
64352;BME280;50680;52.626;-8.668;2023-01-24T09:52:46;103870.56;;;9.20;100.00
64352;BME280;50680;52.626;-8.668;2023-01-24T09:58:01;103864.38;;;9.38;100.00
64352;BME280;50680;52.626;-8.668;2023-01-24T10:00:34;103870.47;;;9.44;100.00
64352;BME280;50680;52.626;-8.668;2023-01-24T10:03:03;103859.09;;;9.48;100.00
64352;BME280;50680;52.626;-8.668;2023-01-24T10:05:39;103862.56;;;9.50;100.00
64352;BME280;50680;52.626;-8.668;2023-01-24T10:21:58;103864.38;;;9.41;100.00
64352;BME280;50680;52.626;-8.668;2023-01-24T10:24:31;103865.19;;;9.53;100.00
64352;BME280;50680;52.626;-8.668;2023-01-24T10:26:59;103869.53;;;9.57;100.00
64352;BME280;50680;52.626;-8.668;2023-01-24T10:29:30;103869.50;;;9.63;100.00
64352;BME280;50680;52.626;-8.668;2023-01-24T10:32:04;103866.88;;;9.65;100.00
64352;BME280;50680;52.626;-8.668;2023-01-24T10:34:38;103876.44;;;9.78;100.00
64352;BME280;50680;52.626;-8.668;2023-01-24T10:39:37;103871.13;;;9.86;100.00
64352;BME280;50680;52.626;-8.668;2023-01-24T10:42:25;103875.50;;;9.85;100.00
64352;BME280;50680;52.626;-8.668;2023-01-24T10:45:00;103876.41;;;9.81;100.00
64352;BME280;50680;52.626;-8.668;2023-01-24T10:47:46;103869.41;;;9.86;100.00
64352;BME280;50680;52.626;-8.668;2023-01-24T10:50:17;103871.97;;;9.97;100.00
64352;BME280;50680;52.626;-8.668;2023-01-24T10:52:44;103866.72;;;9.97;100.00
64352;BME280;50680;52.626;-8.668;2023-01-24T10:58:03;103853.53;;;10.09;100.00
64352;BME280;50680;52.626;-8.668;2023-01-24T11:00:43;103849.94;;;10.20;100.00
64352;BME280;50680;52.626;-8.668;2023-01-24T11:03:20;103844.63;;;10.35;100.00
64352;BME280;50680;52.626;-8.668;2023-01-24T11:05:51;103840.91;;;10.61;100.00
64352;BME280;50680;52.626;-8.668;2023-01-24T11:08:43;103852.97;;;10.80;100.00
64352;BME280;50680;52.626;-8.668;2023-01-24T11:11:23;103839.88;;;10.76;100.00
64352;BME280;50680;52.626;-8.668;2023-01-24T11:13:55;103845.91;;;10.88;100.00
64352;BME280;50680;52.626;-8.668;2023-01-24T11:16:27;103840.53;;;10.98;100.00
64352;BME280;50680;52.626;-8.668;2023-01-24T11:19:01;103837.91;;;10.96;100.00
64352;BME280;50680;52.626;-8.668;2023-01-24T11:21:32;103837.78;;;11.08;100.00
64352;BME280;50680;52.626;-8.668;2023-01-24T11:26:54;103821.13;;;11.11;100.00
64352;BME280;50680;52.626;-8.668;2023-01-24T11:29:22;103820.91;;;11.28;100.00
64352;BME280;50680;52.626;-8.668;2023-01-24T11:31:55;103821.03;;;11.20;100.00
64352;BME280;50680;52.626;-8.668;2023-01-24T11:36:55;103810.38;;;11.29;100.00
64352;BME280;50680;52.626;-8.668;2023-01-24T11:42:33;103805.94;;;11.36;100.00
64352;BME280;50680;52.626;-8.668;2023-01-24T11:45:29;103802.63;;;11.22;100.00
64352;BME280;50680;52.626;-8.668;2023-01-24T11:51:14;103796.44;;;11.23;100.00
64352;BME280;50680;52.626;-8.668;2023-01-24T12:12:44;103798.16;;;11.28;100.00
64352;BME280;50680;52.626;-8.668;2023-01-24T12:15:30;103798.03;;;11.38;100.00
64352;BME280;50680;52.626;-8.668;2023-01-24T12:18:25;103792.75;;;11.39;100.00
64352;BME280;50680;52.626;-8.668;2023-01-24T12:21:06;103794.38;;;11.48;100.00
64352;BME280;50680;52.626;-8.668;2023-01-24T12:23:51;103796.94;;;11.54;100.00
64352;BME280;50680;52.626;-8.668;2023-01-24T12:26:44;103790.59;;;11.69;100.00
64352;BME280;50680;52.626;-8.668;2023-01-24T12:29:21;103794.00;;;11.76;100.00
64352;BME280;50680;52.626;-8.668;2023-01-24T12:31:54;103790.41;;;11.80;100.00
64352;BME280;50680;52.626;-8.668;2023-01-24T12:34:35;103788.69;;;11.79;100.00
64352;BME280;50680;52.626;-8.668;2023-01-24T12:39:43;103792.03;;;11.92;100.00
64352;BME280;50680;52.626;-8.668;2023-01-24T12:42:19;103790.28;;;11.92;100.00
64352;BME280;50680;52.626;-8.668;2023-01-24T12:44:56;103788.34;;;12.02;100.00
64352;BME280;50680;52.626;-8.668;2023-01-24T12:47:41;103790.00;;;12.08;100.00
64352;BME280;50680;52.626;-8.668;2023-01-24T12:53:12;103780.19;;;12.19;100.00
64352;BME280;50680;52.626;-8.668;2023-01-24T12:55:59;103779.44;;;12.11;100.00
64352;BME280;50680;52.626;-8.668;2023-01-24T12:58:38;103776.63;;;12.21;100.00
64352;BME280;50680;52.626;-8.668;2023-01-24T13:01:51;103779.31;;;12.20;100.00
64352;BME280;50680;52.626;-8.668;2023-01-24T13:04:41;103781.63;;;12.37;100.00
64352;BME280;50680;52.626;-8.668;2023-01-24T13:07:37;103779.22;;;12.25;100.00
64352;BME280;50680;52.626;-8.668;2023-01-24T13:12:38;103771.22;;;12.32;100.00
64352;BME280;50680;52.626;-8.668;2023-01-24T13:15:40;103779.19;;;12.26;100.00
64352;BME280;50680;52.626;-8.668;2023-01-24T13:23:32;103779.19;;;12.26;100.00
64352;BME280;50680;52.626;-8.668;2023-01-24T13:34:23;103759.00;;;12.27;100.00
64352;BME280;50680;52.626;-8.668;2023-01-24T13:36:51;103776.22;;;12.46;100.00
64352;BME280;50680;52.626;-8.668;2023-01-24T13:39:34;103773.63;;;12.45;100.00
64352;BME280;50680;52.626;-8.668;2023-01-24T13:44:43;103779.28;;;12.70;100.00
64352;BME280;50680;52.626;-8.668;2023-01-24T13:50:02;103775.72;;;12.74;100.00
64352;BME280;50680;52.626;-8.668;2023-01-24T14:00:30;103774.59;;;12.86;100.00
64352;BME280;50680;52.626;-8.668;2023-01-24T14:03:03;103773.56;;;12.94;100.00
64352;BME280;50680;52.626;-8.668;2023-01-24T14:05:51;103775.00;;;13.08;100.00
64352;BME280;50680;52.626;-8.668;2023-01-24T14:18:58;103773.66;;;13.32;100.00
64352;BME280;50680;52.626;-8.668;2023-01-24T14:24:26;103761.47;;;13.25;100.00
64352;BME280;50680;52.626;-8.668;2023-01-24T14:26:59;103762.41;;;13.24;100.00
64352;BME280;50680;52.626;-8.668;2023-01-24T14:29:42;103772.03;;;13.25;100.00
64352;BME280;50680;52.626;-8.668;2023-01-24T14:32:24;103773.06;;;13.17;100.00
64352;BME280;50680;52.626;-8.668;2023-01-24T14:37:39;103773.03;;;13.19;100.00
64352;BME280;50680;52.626;-8.668;2023-01-24T14:40:29;103767.88;;;13.13;100.00
64352;BME280;50680;52.626;-8.668;2023-01-24T14:43:01;103763.56;;;13.10;100.00
64352;BME280;50680;52.626;-8.668;2023-01-24T14:45:30;103759.13;;;13.12;100.00
64352;BME280;50680;52.626;-8.668;2023-01-24T14:47:59;103763.56;;;13.10;100.00
64352;BME280;50680;52.626;-8.668;2023-01-24T14:50:30;103764.75;;;12.94;100.00
64352;BME280;50680;52.626;-8.668;2023-01-24T14:53:01;103747.25;;;12.93;100.00
64352;BME280;50680;52.626;-8.668;2023-01-24T14:55:35;103760.34;;;12.96;100.00
64352;BME280;50680;52.626;-8.668;2023-01-24T14:58:20;103757.84;;;12.88;100.00
64352;BME280;50680;52.626;-8.668;2023-01-24T15:00:49;103739.66;;;12.77;100.00
64352;BME280;50680;52.626;-8.668;2023-01-24T15:03:19;103757.94;;;12.84;100.00
64352;BME280;50680;52.626;-8.668;2023-01-24T15:08:20;103748.31;;;12.83;100.00